Предлагаем Вашему вниманию английскую версию страницы: AUTOTAF.ME 33994 - aviation weather forecast Sevastopol' (Bel'bek)

AUTOTAF 33994 - авиапрогноз Севастополь (Бельбек)

Сегодня рассвет 03:43 UTC, восход солнца 04:12 UTC,
местный полдень 09:56 UTC, заход солнца 15:41 UTC,
наступление темноты 16:10 UTC.

Краткий прогноз 33994 на 9 часов

AUTOTAF.ME 33994 070500Z 0706/0715 01004MPS CAVOK     
  BECMG 0710/0712 31005MPS

Детальный прогноз 33994 на 24 часа

AUTOTAF.ME 33994 070500Z 0706/0806 01004MPS 9999 SKC TX03/0721Z TNM04/0715Z   
  BECMG 0710/0712 31005MPS   
  BECMG 0716/0718 25004MPS  
  BECMG 0719/0721 FEW031

Подробный табличный прогноз

Время (UTC) miniAUTOTAF на 3 ч WX FZLVL
M AGL
ICE TURB Т
(°С)
Тd
(°С)
f(%) QNH
(гПа)
WIND/T
03 02005MPS 9999 SKC SFC 3 -1 71 1028 ...
06 01004MPS 9999 SKC 30 2 -4 66 1028 ...
09 34004MPS 9999 SKC 150 MOD SFC/FL20 0 -4 71 1027 ...
12 31005MPS 9999 SKC 180 MOD SFC/FL20 -2 -6 74 1025 ...
15 29004MPS 9999 SKC 240 MOD SFC/FL40 -4 -7 80 1024 ...
18 25004MPS 9999 SKC 270 MOD SFC/FL40 -3 -8 69 1023 ...
21 23005MPS 9999 FEW031 270 MOD SFC/FL40 3 -9 42 1022 ...
08.03.2021
00 23006MPS 9999 SCT023 300 FBL FL40/FL50 MOD SFC/FL40 3 -6 50 1021 ...
03 23006MPS 9999 SCT023 360 FBL FL40/FL50 MOD SFC/FL40 2 -5 60 1019 ...
06 23006MPS 9999 SCT023 420 MOD FL20/FL30 MOD SFC/FL40 0 -5 71 1019 ...
09 24007MPS 9999 BKN022 480 MOD FL20/FL50 MOD SFC/FL40 1 -4 66 1018 ...
12 24008G13MPS 9999 BKN015 480 MOD FL20/FL30 MOD SFC/FL40 1 -4 70 1017 ...
15 24008G13MPS 9999 -RA BKN015 -RA 540 MOD FL40/FL70 MOD SFC/FL30 1 -3 73 1016 ...
18 25008G13MPS 9999 -RA OVC015 -RA 600 MOD FL40/FL70 MOD SFC/FL30 3 -2 71 1017 ...
21 30005MPS 9999 -SHRA OVC021CB -SHRA 630 MOD FL50/FL90 MOD SFC/FL40 5 -0 69 1017 ...


Широта 44.7°, долгота 33.6°, высота 85 м абс.
Средняя высота рельефа местности 39 м абс.
Прогнозы обновляются четыре раза в сутки: в 02, 08, 14, 20 ч всемирного времени.


Выбрать прогноз по другой модели Севастополь (Бельбек)
Онлайн-сводка гроз по Севастополь (Бельбек) (для РФ и ближнего зарубежья)
Карта фактических гроз в окрестностях Севастополь (Бельбек)
Динамические прогностические карты (ventusky.com)
Прогностическая карта высоты нижней границы облаков по Севастополь (Бельбек) (windy.com)
Выбрать другой город

Прогноз предназначен для личного научно-познавательного использования частными лицами
и не предназначен для принятия важных решений и выполнения реальных полётов воздушных судов

При копировании или ином использовании любых материалов данного сайта ссылка на © meteocenter.asia обязательна.

0.61/1